Time;durP1;ratioP1;P1;durP2;ratioP2;P2;SDS_P1;SDS_P2;PMS_P1;PMS_P2;Temp;Humidity;BMP_temperature;BMP_pressure;BME280_temperature;BME280_humidity;BME280_pressure;Samples;Min_cycle;Max_cycle;Signal;HPM_P1;HPM_P2
2024/01/24 00:02:20;;;;;;;3.83;2.23;;;;;;;;;;5051465;28;20189;-79
2024/01/24 00:05:05;;;;;;;5.50;2.77;;;;;;;;;;5038057;28;20193;-79
2024/01/24 00:07:35;;;;;;;6.17;2.90;;;;;;;;;;5048241;28;20200;-79
2024/01/24 00:10:18;;;;;;;7.50;2.67;;;;;;;;;;5051133;28;20217;-79
2024/01/24 00:13:05;;;;;;;6.07;2.77;;;;;;;;;;5044389;28;20197;-80
2024/01/24 00:15:50;;;;;;;5.73;2.70;;;;;;;;;;5050791;28;20197;-79
2024/01/24 00:18:41;;;;;;;4.47;2.73;;;;;;;;;;5052122;28;20206;-78
2024/01/24 00:21:30;;;;;;;5.30;3.00;;;;;;;;;;5048649;28;20290;-80
2024/01/24 00:24:00;;;;;;;5.73;2.60;;;;;;;;;;5044100;28;20248;-79
2024/01/24 00:26:39;;;;;;;4.50;2.70;;;;;;;;;;5052709;28;20204;-81
2024/01/24 00:29:11;;;;;;;5.70;2.80;;;;;;;;;;5052434;28;20266;-80
2024/01/24 00:31:53;;;;;;;5.23;2.67;;;;;;;;;;5049843;28;20221;-78
2024/01/24 00:34:25;;;;;;;6.00;2.60;;;;;;;;;;5052101;28;20271;-79
2024/01/24 00:36:52;;;;;;;4.97;2.63;;;;;;;;;;5058780;28;20618;-79
2024/01/24 00:39:18;;;;;;;4.03;2.57;;;;;;;;;;5036752;28;20669;-79
2024/01/24 00:41:47;;;;;;;6.60;2.80;;;;;;;;;;5050882;28;20201;-81
2024/01/24 00:44:24;;;;;;;7.80;3.37;;;;;;;;;;5049139;28;20200;-79
2024/01/24 00:46:53;;;;;;;5.50;3.23;;;;;;;;;;5051941;28;20661;-79
2024/01/24 00:49:36;;;;;;;7.00;3.33;;;;;;;;;;5051905;28;20280;-78
2024/01/24 00:52:04;;;;;;;4.87;3.47;;;;;;;;;;5051580;28;20268;-79
2024/01/24 00:54:56;;;;;;;;;;;;;;;;;;;;;
2024/01/24 00:57:26;;;;;;;6.47;3.50;;;;;;;;;;5049245;28;20216;-82
2024/01/24 00:59:57;;;;;;;6.60;3.40;;;;;;;;;;5051542;28;20244;-79
2024/01/24 01:02:26;;;;;;;6.03;3.20;;;;;;;;;;5051686;28;20197;-77
2024/01/24 01:04:55;;;;;;;7.27;3.47;;;;;;;;;;5051526;28;20205;-79
2024/01/24 01:07:24;;;;;;;4.43;3.00;;;;;;;;;;5058835;28;20272;-79
2024/01/24 01:10:07;;;;;;;4.53;2.73;;;;;;;;;;5049301;28;20222;-79
2024/01/24 01:12:33;;;;;;;6.53;3.10;;;;;;;;;;5039061;28;20264;-80
2024/01/24 01:15:08;;;;;;;5.43;2.57;;;;;;;;;;5050591;28;20193;-79
2024/01/24 01:17:39;;;;;;;5.67;3.17;;;;;;;;;;5051509;28;20724;-79
2024/01/24 01:20:09;;;;;;;5.17;3.27;;;;;;;;;;5053767;28;20214;-79
2024/01/24 01:22:40;;;;;;;5.60;2.70;;;;;;;;;;5046772;28;20252;-81
2024/01/24 01:25:16;;;;;;;3.23;2.13;;;;;;;;;;5049640;28;20212;-80
2024/01/24 01:27:46;;;;;;;3.73;2.10;;;;;;;;;;5054011;28;20276;-80
2024/01/24 01:30:19;;;;;;;5.03;2.23;;;;;;;;;;5029908;28;20902;-80
2024/01/24 01:32:59;;;;;;;3.47;2.10;;;;;;;;;;5032906;28;20208;-81
2024/01/24 01:35:26;;;;;;;4.00;1.87;;;;;;;;;;5055835;28;20193;-80
2024/01/24 01:37:53;;;;;;;3.27;2.03;;;;;;;;;;5053820;28;20221;-78
2024/01/24 01:40:24;;;;;;;4.27;2.10;;;;;;;;;;5050694;28;20198;-79
2024/01/24 01:42:54;;;;;;;4.17;2.37;;;;;;;;;;5047774;28;20197;-83
2024/01/24 01:45:27;;;;;;;3.23;2.07;;;;;;;;;;5049468;28;20296;-79
2024/01/24 01:48:02;;;;;;;2.57;2.17;;;;;;;;;;5051111;28;20700;-81
2024/01/24 01:50:42;;;;;;;6.10;2.07;;;;;;;;;;5033994;28;20293;-79
2024/01/24 01:53:15;;;;;;;3.47;1.80;;;;;;;;;;5050987;28;20203;-78
2024/01/24 01:55:44;;;;;;;3.63;2.07;;;;;;;;;;5042552;28;20275;-80
2024/01/24 01:58:11;;;;;;;3.07;1.97;;;;;;;;;;5050325;28;20380;-78
2024/01/24 02:00:38;;;;;;;3.30;1.90;;;;;;;;;;5050492;28;20194;-78
2024/01/24 02:03:06;;;;;;;3.60;2.00;;;;;;;;;;5050405;28;20208;-78
2024/01/24 02:05:34;;;;;;;2.60;1.90;;;;;;;;;;5050088;28;20247;-81
2024/01/24 02:08:07;;;;;;;3.83;2.20;;;;;;;;;;5050457;28;20201;-79
2024/01/24 02:10:37;;;;;;;5.83;2.50;;;;;;;;;;5050152;28;20267;-81
2024/01/24 02:13:05;;;;;;;3.20;1.90;;;;;;;;;;5050311;28;20201;-79
2024/01/24 02:15:38;;;;;;;3.20;2.00;;;;;;;;;;5049842;28;20204;-80
2024/01/24 02:18:07;;;;;;;3.37;1.90;;;;;;;;;;5047624;28;20204;-79
2024/01/24 02:20:34;;;;;;;4.37;2.03;;;;;;;;;;5041996;28;20359;-80
2024/01/24 02:23:03;;;;;;;3.87;2.10;;;;;;;;;;5050322;28;20723;-79
2024/01/24 02:25:33;;;;;;;3.30;1.83;;;;;;;;;;5047543;28;20197;-80
2024/01/24 02:28:01;;;;;;;3.00;1.63;;;;;;;;;;5045725;28;20210;-79
2024/01/24 02:30:30;;;;;;;2.33;1.60;;;;;;;;;;5053373;28;20209;-79
2024/01/24 02:33:00;;;;;;;3.13;1.57;;;;;;;;;;5047206;28;20284;-80
2024/01/24 02:35:28;;;;;;;3.20;1.60;;;;;;;;;;5048642;28;20208;-80
2024/01/24 02:37:54;;;;;;;4.67;1.50;;;;;;;;;;5049810;28;20268;-79
2024/01/24 02:40:28;;;;;;;2.53;1.40;;;;;;;;;;5048635;28;20200;-79
2024/01/24 02:43:00;;;;;;;3.73;1.50;;;;;;;;;;5049478;28;20243;-82
2024/01/24 02:45:27;;;;;;;3.47;1.30;;;;;;;;;;5045341;28;20201;-78
2024/01/24 02:47:54;;;;;;;3.50;1.30;;;;;;;;;;5048697;28;20198;-82
2024/01/24 02:50:20;;;;;;;2.87;1.20;;;;;;;;;;5045927;28;20240;-78
2024/01/24 02:52:48;;;;;;;2.67;1.37;;;;;;;;;;5048497;28;20204;-80
2024/01/24 02:55:18;;;;;;;2.77;1.30;;;;;;;;;;5049752;28;20198;-82
2024/01/24 02:57:47;;;;;;;3.20;1.60;;;;;;;;;;5043854;28;20201;-81
2024/01/24 03:00:19;;;;;;;3.73;1.40;;;;;;;;;;5049789;28;20194;-81
2024/01/24 03:02:46;;;;;;;2.00;1.10;;;;;;;;;;5045182;28;20210;-80
2024/01/24 03:05:13;;;;;;;2.50;1.17;;;;;;;;;;5052727;28;20197;-80
2024/01/24 03:07:42;;;;;;;2.40;1.10;;;;;;;;;;5053571;28;20189;-77
2024/01/24 03:10:11;;;;;;;2.73;1.13;;;;;;;;;;5053668;28;20251;-81
2024/01/24 03:12:38;;;;;;;2.57;1.17;;;;;;;;;;5053749;28;20197;-80
2024/01/24 03:15:05;;;;;;;2.40;1.10;;;;;;;;;;5027801;28;20251;-81
2024/01/24 03:17:34;;;;;;;2.93;1.10;;;;;;;;;;5062607;28;20193;-78
2024/01/24 03:20:11;;;;;;;3.30;1.23;;;;;;;;;;5025578;28;20216;-81
2024/01/24 03:22:42;;;;;;;1.63;1.10;;;;;;;;;;5036412;28;20259;-81
2024/01/24 03:25:16;;;;;;;2.60;1.47;;;;;;;;;;5055389;28;20200;-82
2024/01/24 03:27:45;;;;;;;1.80;1.20;;;;;;;;;;5054048;28;20193;-82
2024/01/24 03:30:13;;;;;;;3.13;1.13;;;;;;;;;;5042006;28;20259;-81
2024/01/24 03:32:42;;;;;;;2.80;1.40;;;;;;;;;;5055105;28;20207;-79
2024/01/24 03:35:13;;;;;;;1.73;0.97;;;;;;;;;;5059789;28;20193;-82
2024/01/24 03:37:45;;;;;;;2.37;1.20;;;;;;;;;;5031380;28;20320;-79
2024/01/24 03:40:18;;;;;;;2.50;1.30;;;;;;;;;;5052717;28;20233;-79
2024/01/24 03:42:44;;;;;;;3.53;1.30;;;;;;;;;;5034053;28;20194;-79
2024/01/24 03:45:16;;;;;;;2.73;1.20;;;;;;;;;;5055651;28;20197;-80
2024/01/24 03:47:44;;;;;;;4.70;1.77;;;;;;;;;;5053597;28;20201;-80
2024/01/24 03:50:21;;;;;;;3.60;1.37;;;;;;;;;;5031390;28;20602;-80
2024/01/24 03:52:48;;;;;;;2.10;1.20;;;;;;;;;;5018808;28;20639;-81
2024/01/24 03:55:17;;;;;;;2.53;1.50;;;;;;;;;;5033022;28;20721;-80
2024/01/24 03:57:45;;;;;;;3.43;1.67;;;;;;;;;;5038434;28;20203;-78
2024/01/24 04:00:12;;;;;;;3.40;1.70;;;;;;;;;;5032613;28;20217;-78
2024/01/24 04:02:50;;;;;;;3.53;1.87;;;;;;;;;;5048387;28;20277;-81
2024/01/24 04:05:16;;;;;;;5.23;2.13;;;;;;;;;;5040536;28;20204;-77
2024/01/24 04:07:48;;;;;;;3.60;1.77;;;;;;;;;;5045539;28;20240;-77
2024/01/24 04:10:17;;;;;;;3.57;1.90;;;;;;;;;;5044092;28;20212;-77
2024/01/24 04:12:45;;;;;;;3.20;1.70;;;;;;;;;;5037601;28;20674;-77
2024/01/24 04:15:19;;;;;;;3.13;2.00;;;;;;;;;;5035323;28;20194;-78
2024/01/24 04:17:48;;;;;;;4.03;1.90;;;;;;;;;;5031057;28;20205;-78
2024/01/24 04:20:16;;;;;;;6.10;2.20;;;;;;;;;;5017450;28;20281;-78
2024/01/24 04:22:42;;;;;;;3.37;1.90;;;;;;;;;;5032797;28;20202;-78
2024/01/24 04:25:11;;;;;;;3.27;2.17;;;;;;;;;;5047050;28;20201;-78
2024/01/24 04:27:41;;;;;;;5.77;2.13;;;;;;;;;;5049408;28;20216;-77
2024/01/24 04:30:08;;;;;;;4.83;2.07;;;;;;;;;;5044658;28;20217;-78
2024/01/24 04:32:35;;;;;;;5.57;2.50;;;;;;;;;;5033401;28;20221;-78
2024/01/24 04:35:05;;;;;;;6.40;2.33;;;;;;;;;;5041394;28;20186;-77
2024/01/24 04:37:33;;;;;;;5.40;2.50;;;;;;;;;;5030031;28;20220;-77
2024/01/24 04:40:03;;;;;;;3.40;1.83;;;;;;;;;;5039436;28;20225;-77
2024/01/24 04:42:36;;;;;;;2.83;2.00;;;;;;;;;;4990943;28;20282;-76
2024/01/24 04:45:06;;;;;;;4.70;2.50;;;;;;;;;;5043696;28;20213;-76
2024/01/24 04:47:38;;;;;;;4.37;2.10;;;;;;;;;;5040080;28;20281;-75
2024/01/24 04:50:06;;;;;;;3.87;2.50;;;;;;;;;;5039478;28;20309;-78
2024/01/24 04:52:34;;;;;;;2.93;2.03;;;;;;;;;;5012140;28;20238;-78
2024/01/24 04:55:09;;;;;;;5.87;2.50;;;;;;;;;;5027427;28;20198;-77
2024/01/24 04:57:38;;;;;;;6.10;2.40;;;;;;;;;;5032496;28;20277;-77
2024/01/24 05:00:09;;;;;;;4.40;2.90;;;;;;;;;;5031534;28;20240;-79
2024/01/24 05:02:36;;;;;;;3.17;2.30;;;;;;;;;;5024851;28;20236;-77
2024/01/24 05:05:10;;;;;;;3.97;2.47;;;;;;;;;;5031081;28;20234;-77
2024/01/24 05:07:38;;;;;;;4.40;2.60;;;;;;;;;;5037106;28;20206;-79
2024/01/24 05:10:08;;;;;;;3.13;2.40;;;;;;;;;;5033866;28;20257;-78
2024/01/24 05:12:35;;;;;;;5.57;2.43;;;;;;;;;;5012686;28;20234;-77
2024/01/24 05:15:02;;;;;;;4.57;2.33;;;;;;;;;;5027050;28;20213;-78
2024/01/24 05:17:28;;;;;;;5.43;2.70;;;;;;;;;;5037731;28;20195;-77
2024/01/24 05:19:55;;;;;;;5.80;3.30;;;;;;;;;;5031702;28;20233;-78
2024/01/24 05:22:26;;;;;;;3.60;2.73;;;;;;;;;;5035993;28;20199;-77
2024/01/24 05:24:56;;;;;;;6.20;2.70;;;;;;;;;;5030013;28;20190;-77
2024/01/24 05:27:29;;;;;;;3.80;2.40;;;;;;;;;;5029362;28;20191;-77
2024/01/24 05:29:58;;;;;;;5.60;2.83;;;;;;;;;;5030210;28;20194;-77
2024/01/24 05:32:40;;;;;;;6.17;2.87;;;;;;;;;;5034850;28;20300;-77
2024/01/24 05:35:09;;;;;;;5.30;2.60;;;;;;;;;;5028037;28;20733;-78
2024/01/24 05:37:35;;;;;;;5.50;2.87;;;;;;;;;;5041630;28;20277;-79
2024/01/24 05:40:03;;;;;;;3.87;2.70;;;;;;;;;;5028058;28;20194;-77
2024/01/24 05:42:32;;;;;;;3.77;2.87;;;;;;;;;;5020504;28;20265;-77
2024/01/24 05:45:05;;;;;;;3.93;2.57;;;;;;;;;;5037584;28;20556;-77
2024/01/24 05:47:32;;;;;;;5.70;2.60;;;;;;;;;;5020451;28;20256;-78
2024/01/24 05:50:00;;;;;;;6.07;2.50;;;;;;;;;;5032684;28;20214;-78
2024/01/24 05:52:27;;;;;;;3.87;2.20;;;;;;;;;;5059936;28;20216;-79
2024/01/24 05:54:54;;;;;;;6.03;2.60;;;;;;;;;;5063760;28;20212;-78
2024/01/24 05:57:24;;;;;;;3.93;2.13;;;;;;;;;;5058942;28;20684;-78
2024/01/24 05:59:53;;;;;;;6.60;2.37;;;;;;;;;;5055717;28;20197;-78
2024/01/24 06:02:23;;;;;;;4.30;2.03;;;;;;;;;;5055839;28;20205;-77
2024/01/24 06:04:51;;;;;;;3.10;2.07;;;;;;;;;;5057128;28;20255;-77
2024/01/24 06:07:18;;;;;;;6.27;2.57;;;;;;;;;;5060888;28;20197;-78
2024/01/24 06:09:49;;;;;;;4.70;1.93;;;;;;;;;;5067299;28;20227;-77
2024/01/24 06:12:15;;;;;;;4.93;2.00;;;;;;;;;;5060430;28;20235;-78
2024/01/24 06:14:42;;;;;;;2.60;1.80;;;;;;;;;;5055972;28;20224;-78
2024/01/24 06:17:11;;;;;;;4.50;1.80;;;;;;;;;;5066299;28;20249;-78
2024/01/24 06:19:43;;;;;;;3.13;1.70;;;;;;;;;;5048816;28;20228;-77
2024/01/24 06:22:13;;;;;;;2.67;1.73;;;;;;;;;;5041377;28;20591;-77
2024/01/24 06:24:48;;;;;;;3.63;1.97;;;;;;;;;;5061972;28;20195;-77
2024/01/24 06:27:18;;;;;;;2.67;1.70;;;;;;;;;;5070164;28;20196;-78
2024/01/24 06:29:45;;;;;;;3.60;1.67;;;;;;;;;;5068908;28;20188;-80
2024/01/24 06:32:32;;;;;;;6.80;1.63;;;;;;;;;;5061683;28;20216;-79
2024/01/24 06:35:00;;;;;;;2.87;1.73;;;;;;;;;;5061720;28;20189;-78
2024/01/24 06:37:26;;;;;;;2.10;1.40;;;;;;;;;;5056324;28;20192;-78
2024/01/24 06:39:54;;;;;;;2.10;1.60;;;;;;;;;;5051450;28;20201;-77
2024/01/24 06:42:25;;;;;;;4.17;1.53;;;;;;;;;;5067591;28;20231;-78
2024/01/24 06:44:51;;;;;;;2.83;1.37;;;;;;;;;;5063831;28;20192;-77
2024/01/24 06:47:21;;;;;;;2.17;1.50;;;;;;;;;;5070720;28;20205;-77
2024/01/24 06:49:51;;;;;;;2.83;1.27;;;;;;;;;;5066561;28;20228;-78
2024/01/24 06:52:18;;;;;;;5.33;1.33;;;;;;;;;;5070396;28;20313;-78
2024/01/24 06:54:44;;;;;;;2.47;1.23;;;;;;;;;;5066812;28;20197;-78
2024/01/24 06:57:11;;;;;;;2.87;1.40;;;;;;;;;;5069963;28;20199;-80
2024/01/24 06:59:38;;;;;;;1.83;1.30;;;;;;;;;;5069779;28;20728;-78
2024/01/24 07:02:05;;;;;;;2.00;1.30;;;;;;;;;;5070771;28;20196;-78
2024/01/24 07:04:37;;;;;;;2.20;1.80;;;;;;;;;;5069761;28;20193;-78
2024/01/24 07:07:06;;;;;;;3.90;2.30;;;;;;;;;;5058286;28;20198;-81
2024/01/24 07:09:32;;;;;;;3.80;1.87;;;;;;;;;;5058285;28;20633;-77
2024/01/24 07:12:02;;;;;;;2.87;1.70;;;;;;;;;;5058359;28;20268;-78
2024/01/24 07:14:29;;;;;;;3.00;1.63;;;;;;;;;;5056468;28;20277;-78
2024/01/24 07:16:57;;;;;;;6.33;2.80;;;;;;;;;;5052367;28;20274;-78
2024/01/24 07:19:28;;;;;;;2.83;2.00;;;;;;;;;;5067169;28;20207;-77
2024/01/24 07:21:55;;;;;;;3.87;1.90;;;;;;;;;;5062641;28;20591;-79
2024/01/24 07:24:28;;;;;;;2.97;2.10;;;;;;;;;;5052428;28;20584;-78
2024/01/24 07:26:58;;;;;;;3.53;1.80;;;;;;;;;;5034109;28;20300;-78
2024/01/24 07:29:28;;;;;;;2.70;1.97;;;;;;;;;;5063710;28;20200;-77
2024/01/24 07:31:55;;;;;;;2.90;2.10;;;;;;;;;;5060239;28;20274;-80
2024/01/24 07:34:26;;;;;;;4.20;2.37;;;;;;;;;;5060822;28;20234;-78
2024/01/24 07:36:53;;;;;;;3.93;2.20;;;;;;;;;;5063291;28;20208;-78
2024/01/24 07:39:22;;;;;;;5.27;2.10;;;;;;;;;;5063685;28;20193;-78
2024/01/24 07:41:48;;;;;;;4.13;2.20;;;;;;;;;;5060329;28;20204;-77
2024/01/24 07:44:15;;;;;;;4.17;2.03;;;;;;;;;;5070236;28;20196;-78
2024/01/24 07:46:44;;;;;;;5.70;2.27;;;;;;;;;;5066912;28;20327;-79
2024/01/24 07:49:11;;;;;;;4.70;2.40;;;;;;;;;;5065237;28;20192;-78
2024/01/24 07:51:46;;;;;;;3.00;2.30;;;;;;;;;;5053851;28;20768;-79
2024/01/24 07:54:17;;;;;;;4.00;2.33;;;;;;;;;;5073012;28;20200;-80
2024/01/24 07:56:49;;;;;;;3.73;2.73;;;;;;;;;;5072497;28;20265;-77
2024/01/24 07:59:21;;;;;;;3.37;2.20;;;;;;;;;;5072331;28;20189;-78
2024/01/24 08:01:48;;;;;;;10.27;6.80;;;;;;;;;;5067196;28;20193;-77
2024/01/24 08:04:17;;;;;;;28.27;19.80;;;;;;;;;;5057802;28;20189;-77
2024/01/24 08:06:47;;;;;;;12.97;9.53;;;;;;;;;;5069964;28;20269;-79
2024/01/24 08:09:20;;;;;;;8.80;6.53;;;;;;;;;;5067224;28;20299;-80
2024/01/24 08:11:48;;;;;;;14.70;10.90;;;;;;;;;;5055830;28;20208;-79
2024/01/24 08:14:16;;;;;;;13.00;10.17;;;;;;;;;;5057548;28;20305;-79
2024/01/24 08:17:18;;;;;;;22.63;20.33;;;;;;;;;;5057785;28;20219;-78
2024/01/24 08:19:48;;;;;;;15.77;12.90;;;;;;;;;;5023776;28;20216;-78
2024/01/24 08:22:36;;;;;;;10.23;8.80;;;;;;;;;;5063178;28;20292;-79
2024/01/24 08:25:06;;;;;;;7.97;5.87;;;;;;;;;;5055602;28;20201;-78
2024/01/24 08:27:34;;;;;;;4.60;3.83;;;;;;;;;;5054068;28;20247;-78
2024/01/24 08:30:02;;;;;;;7.43;4.20;;;;;;;;;;5048210;28;20205;-78
2024/01/24 08:32:30;;;;;;;7.73;5.67;;;;;;;;;;5060514;28;20228;-80
2024/01/24 08:34:57;;;;;;;6.10;3.33;;;;;;;;;;5055143;28;20198;-78
2024/01/24 08:37:24;;;;;;;4.03;2.70;;;;;;;;;;5055443;28;20674;-80
2024/01/24 08:39:51;;;;;;;3.53;2.20;;;;;;;;;;5063142;28;20197;-79
2024/01/24 08:42:20;;;;;;;3.13;2.00;;;;;;;;;;5059894;28;20193;-79
2024/01/24 08:44:51;;;;;;;4.43;3.40;;;;;;;;;;5057732;28;20198;-79
2024/01/24 08:47:17;;;;;;;4.37;3.43;;;;;;;;;;5045464;28;20259;-80
2024/01/24 08:49:47;;;;;;;4.97;3.60;;;;;;;;;;5055078;28;20286;-79
2024/01/24 08:52:14;;;;;;;5.30;3.40;;;;;;;;;;5052007;28;20233;-78
2024/01/24 08:54:45;;;;;;;5.80;4.47;;;;;;;;;;5054791;28;20767;-78
2024/01/24 08:57:14;;;;;;;4.83;4.33;;;;;;;;;;5049473;28;20276;-80
2024/01/24 08:59:46;;;;;;;9.17;7.47;;;;;;;;;;5057726;28;20232;-79
2024/01/24 09:02:13;;;;;;;8.77;7.10;;;;;;;;;;5054549;28;20248;-78
2024/01/24 09:04:45;;;;;;;8.00;5.47;;;;;;;;;;5066327;28;20255;-79
2024/01/24 09:07:14;;;;;;;9.37;6.30;;;;;;;;;;5052021;28;20193;-77
2024/01/24 09:09:42;;;;;;;10.07;6.40;;;;;;;;;;5053732;28;20197;-79
2024/01/24 09:12:14;;;;;;;10.00;7.10;;;;;;;;;;5050541;28;20217;-80
2024/01/24 09:14:47;;;;;;;7.50;5.87;;;;;;;;;;5054616;28;20205;-81
2024/01/24 09:17:14;;;;;;;7.47;5.43;;;;;;;;;;5065824;28;20276;-80
2024/01/24 09:19:44;;;;;;;7.10;4.67;;;;;;;;;;5062287;28;20281;-80
2024/01/24 09:22:11;;;;;;;4.70;4.00;;;;;;;;;;5069946;28;20197;-80
2024/01/24 09:24:44;;;;;;;4.63;4.13;;;;;;;;;;5070979;28;20189;-81
2024/01/24 09:27:17;;;;;;;4.67;4.17;;;;;;;;;;5055503;28;20216;-78
2024/01/24 09:29:47;;;;;;;9.70;7.10;;;;;;;;;;5064363;28;20196;-80
2024/01/24 09:32:22;;;;;;;8.60;7.53;;;;;;;;;;5054789;28;20213;-80
2024/01/24 09:34:49;;;;;;;12.40;7.27;;;;;;;;;;5055767;28;20217;-78
2024/01/24 09:37:22;;;;;;;10.30;6.60;;;;;;;;;;5050401;28;20258;-79
2024/01/24 09:39:52;;;;;;;7.40;5.17;;;;;;;;;;5053308;28;20317;-78
2024/01/24 09:42:25;;;;;;;8.37;5.50;;;;;;;;;;5052981;28;20251;-79
2024/01/24 09:44:56;;;;;;;6.13;4.37;;;;;;;;;;5052739;28;20204;-79
2024/01/24 09:47:24;;;;;;;6.30;5.70;;;;;;;;;;5057285;28;20189;-79
2024/01/24 09:49:51;;;;;;;5.80;4.67;;;;;;;;;;5055641;28;20820;-78
2024/01/24 09:52:21;;;;;;;5.27;3.77;;;;;;;;;;5053785;28;20313;-78
2024/01/24 09:54:48;;;;;;;3.33;2.80;;;;;;;;;;5053030;28;20197;-80
2024/01/24 09:57:15;;;;;;;3.20;2.73;;;;;;;;;;5051685;28;20208;-78
2024/01/24 09:59:44;;;;;;;5.27;3.00;;;;;;;;;;5063451;28;20192;-79
2024/01/24 10:02:12;;;;;;;4.10;2.70;;;;;;;;;;5065380;28;20229;-81
2024/01/24 10:04:40;;;;;;;4.70;3.00;;;;;;;;;;5068071;28;20200;-80
2024/01/24 10:07:08;;;;;;;4.03;2.73;;;;;;;;;;5061845;28;20197;-79
2024/01/24 10:09:38;;;;;;;4.17;3.00;;;;;;;;;;5046947;28;20715;-79
2024/01/24 10:12:06;;;;;;;4.13;2.67;;;;;;;;;;5069749;28;20188;-78
2024/01/24 10:14:33;;;;;;;3.00;2.43;;;;;;;;;;5057439;28;20267;-79
2024/01/24 10:17:03;;;;;;;2.60;2.30;;;;;;;;;;5063891;28;20292;-80
2024/01/24 10:19:31;;;;;;;2.33;2.13;;;;;;;;;;5060549;28;20197;-79
2024/01/24 10:21:59;;;;;;;1.90;1.47;;;;;;;;;;5049758;28;20197;-78
2024/01/24 10:24:31;;;;;;;1.60;1.50;;;;;;;;;;5051744;28;20268;-79
2024/01/24 10:26:59;;;;;;;2.73;1.47;;;;;;;;;;5060628;28;20204;-78
2024/01/24 10:29:29;;;;;;;3.40;1.20;;;;;;;;;;5065101;28;20190;-80
2024/01/24 10:32:09;;;;;;;2.10;1.00;;;;;;;;;;5066635;28;20215;-78
2024/01/24 10:34:40;;;;;;;1.20;1.00;;;;;;;;;;5061085;28;20204;-79
2024/01/24 10:37:12;;;;;;;1.47;0.77;;;;;;;;;;5063313;28;20509;-79
2024/01/24 10:39:41;;;;;;;0.67;0.67;;;;;;;;;;5052474;28;20225;-79
2024/01/24 10:42:12;;;;;;;0.77;0.70;;;;;;;;;;5048710;28;20181;-79
2024/01/24 10:44:43;;;;;;;0.73;0.70;;;;;;;;;;5060522;28;20248;-79
2024/01/24 10:47:10;;;;;;;0.80;0.70;;;;;;;;;;5061652;28;20268;-80
2024/01/24 10:49:37;;;;;;;0.60;0.60;;;;;;;;;;5068144;28;20300;-81
2024/01/24 10:52:08;;;;;;;0.83;0.70;;;;;;;;;;5065190;28;20223;-79
2024/01/24 10:54:34;;;;;;;3.03;0.83;;;;;;;;;;5067324;28;20201;-79
2024/01/24 10:57:04;;;;;;;1.57;0.80;;;;;;;;;;5055472;28;20208;-80
2024/01/24 10:59:33;;;;;;;1.57;1.33;;;;;;;;;;5063396;28;20195;-79
2024/01/24 11:02:01;;;;;;;2.53;2.33;;;;;;;;;;5062994;28;20731;-81
2024/01/24 11:04:36;;;;;;;2.80;2.10;;;;;;;;;;5055843;28;20741;-79
2024/01/24 11:07:10;;;;;;;0.60;0.60;;;;;;;;;;5054891;28;20199;-80
2024/01/24 11:09:53;;;;;;;0.87;0.50;;;;;;;;;;5059486;28;20705;-80
2024/01/24 11:12:23;;;;;;;0.57;0.50;;;;;;;;;;5035000;28;20213;-80
2024/01/24 11:14:52;;;;;;;0.57;0.50;;;;;;;;;;5052405;28;20259;-80
2024/01/24 11:17:23;;;;;;;0.60;0.50;;;;;;;;;;5044181;28;20217;-79
2024/01/24 11:19:50;;;;;;;0.40;0.40;;;;;;;;;;5044206;28;20192;-79
2024/01/24 11:22:23;;;;;;;0.30;0.30;;;;;;;;;;5053022;28;20212;-81
2024/01/24 11:24:58;;;;;;;0.93;0.47;;;;;;;;;;5054223;28;20208;-79
2024/01/24 11:27:35;;;;;;;0.90;0.50;;;;;;;;;;5043403;28;20197;-80
2024/01/24 11:30:37;;;;;;;1.13;0.40;;;;;;;;;;5060381;28;20204;-79
2024/01/24 11:33:13;;;;;;;0.40;0.40;;;;;;;;;;5057888;28;20236;-81
2024/01/24 11:35:44;;;;;;;0.60;0.40;;;;;;;;;;5049815;28;20408;-79
2024/01/24 11:38:28;;;;;;;0.43;0.40;;;;;;;;;;5063248;28;20197;-79
2024/01/24 11:41:00;;;;;;;0.43;0.30;;;;;;;;;;5062863;28;20197;-80
2024/01/24 11:43:30;;;;;;;0.53;0.53;;;;;;;;;;5061486;28;20215;-80
2024/01/24 11:46:03;;;;;;;0.53;0.53;;;;;;;;;;5055060;28;20223;-80
2024/01/24 11:48:31;;;;;;;0.40;0.40;;;;;;;;;;5055365;28;20209;-80
2024/01/24 11:51:03;;;;;;;0.63;0.50;;;;;;;;;;5065394;28;20264;-80
2024/01/24 11:53:30;;;;;;;1.03;0.60;;;;;;;;;;5061576;28;20312;-81
2024/01/24 11:55:59;;;;;;;0.70;0.40;;;;;;;;;;5056767;28;20207;-80
2024/01/24 11:58:29;;;;;;;0.73;0.40;;;;;;;;;;5061403;28;20579;-79
2024/01/24 12:00:56;;;;;;;0.60;0.60;;;;;;;;;;5059074;28;20189;-81
2024/01/24 12:03:26;;;;;;;1.07;0.50;;;;;;;;;;5063768;28;20193;-79
2024/01/24 12:05:53;;;;;;;0.67;0.50;;;;;;;;;;5055369;28;20248;-79
2024/01/24 12:08:29;;;;;;;0.93;0.53;;;;;;;;;;5060809;28;20189;-82
2024/01/24 12:10:58;;;;;;;0.40;0.40;;;;;;;;;;5060534;28;20246;-80
2024/01/24 12:13:27;;;;;;;0.70;0.50;;;;;;;;;;5062832;28;20300;-81
2024/01/24 12:15:58;;;;;;;0.73;0.40;;;;;;;;;;5055500;28;20193;-80
2024/01/24 12:18:27;;;;;;;0.67;0.67;;;;;;;;;;5069156;28;20684;-79
2024/01/24 12:21:08;;;;;;;0.60;0.47;;;;;;;;;;5058924;28;20200;-80
2024/01/24 12:23:37;;;;;;;0.90;0.60;;;;;;;;;;5065542;28;20226;-80
2024/01/24 12:26:07;;;;;;;0.57;0.50;;;;;;;;;;5067202;28;20284;-79
2024/01/24 12:28:36;;;;;;;0.50;0.50;;;;;;;;;;5055740;28;20731;-80
2024/01/24 12:31:05;;;;;;;0.80;0.60;;;;;;;;;;5059870;28;20218;-80
2024/01/24 12:33:36;;;;;;;1.17;0.73;;;;;;;;;;5051740;28;20213;-81
2024/01/24 12:36:04;;;;;;;1.27;0.63;;;;;;;;;;5056925;28;20224;-81
2024/01/24 12:38:35;;;;;;;1.07;0.57;;;;;;;;;;5050656;28;20198;-81
2024/01/24 12:41:07;;;;;;;0.57;0.53;;;;;;;;;;5044927;28;20194;-81
2024/01/24 12:43:37;;;;;;;1.80;0.60;;;;;;;;;;5051574;28;20190;-81
2024/01/24 12:46:25;;;;;;;1.50;0.50;;;;;;;;;;5059134;28;20205;-81
2024/01/24 12:48:58;;;;;;;1.40;0.40;;;;;;;;;;5057909;28;20287;-81
2024/01/24 12:51:29;;;;;;;0.67;0.40;;;;;;;;;;5056703;28;20236;-82
2024/01/24 12:53:56;;;;;;;0.90;0.50;;;;;;;;;;5051141;28;20313;-81
2024/01/24 12:56:28;;;;;;;1.27;0.50;;;;;;;;;;5053393;28;20376;-82
2024/01/24 12:58:55;;;;;;;0.57;0.53;;;;;;;;;;5040892;28;20670;-81
2024/01/24 13:01:24;;;;;;;0.80;0.70;;;;;;;;;;5069847;28;20591;-81
2024/01/24 13:04:06;;;;;;;2.80;0.60;;;;;;;;;;5068611;28;20238;-81
2024/01/24 13:06:35;;;;;;;0.93;0.53;;;;;;;;;;5057255;28;20212;-81
2024/01/24 13:09:05;;;;;;;1.30;0.50;;;;;;;;;;5069364;28;20198;-80
2024/01/24 13:11:39;;;;;;;0.93;0.63;;;;;;;;;;5066100;28;20657;-81
2024/01/24 13:14:06;;;;;;;1.03;0.50;;;;;;;;;;5070257;28;20212;-82
2024/01/24 13:16:33;;;;;;;1.97;0.90;;;;;;;;;;5060327;28;20189;-82
2024/01/24 13:19:03;;;;;;;1.30;0.40;;;;;;;;;;5058326;28;20259;-81
2024/01/24 13:21:29;;;;;;;0.50;0.40;;;;;;;;;;5046697;28;20202;-82
2024/01/24 13:24:01;;;;;;;0.40;0.30;;;;;;;;;;5051348;28;20186;-81
2024/01/24 13:26:31;;;;;;;2.60;0.60;;;;;;;;;;5061357;28;20737;-80
2024/01/24 13:29:03;;;;;;;3.40;0.50;;;;;;;;;;5063847;28;20839;-81
2024/01/24 13:31:29;;;;;;;1.10;0.50;;;;;;;;;;5058935;28;20220;-79
2024/01/24 13:33:56;;;;;;;1.17;0.43;;;;;;;;;;5064672;28;20685;-80
2024/01/24 13:36:37;;;;;;;0.60;0.43;;;;;;;;;;5070514;28;20208;-79
2024/01/24 13:39:08;;;;;;;1.03;0.30;;;;;;;;;;5070468;28;20197;-80
2024/01/24 13:41:50;;;;;;;0.70;0.40;;;;;;;;;;5061163;28;20205;-81
2024/01/24 13:44:24;;;;;;;0.43;0.40;;;;;;;;;;5054797;28;20205;-80
2024/01/24 13:46:50;;;;;;;0.70;0.37;;;;;;;;;;5062645;28;20193;-80
2024/01/24 13:49:17;;;;;;;0.30;0.30;;;;;;;;;;5065925;28;20192;-80
2024/01/24 13:51:45;;;;;;;0.37;0.30;;;;;;;;;;5068305;28;20814;-80
2024/01/24 13:54:12;;;;;;;0.63;0.40;;;;;;;;;;5053075;28;20307;-80
2024/01/24 13:56:43;;;;;;;0.60;0.40;;;;;;;;;;5053695;28;20190;-82
2024/01/24 13:59:14;;;;;;;1.70;1.03;;;;;;;;;;5057341;28;20834;-80
2024/01/24 14:01:43;;;;;;;1.10;0.43;;;;;;;;;;5059037;28;20186;-81
2024/01/24 14:04:20;;;;;;;0.50;0.50;;;;;;;;;;5055764;28;20658;-80
2024/01/24 14:06:50;;;;;;;1.10;0.40;;;;;;;;;;5057212;28;20185;-84
2024/01/24 14:09:19;;;;;;;0.57;0.40;;;;;;;;;;5059113;28;20197;-80
2024/01/24 14:11:47;;;;;;;0.57;0.40;;;;;;;;;;5056159;28;20194;-79
2024/01/24 14:14:14;;;;;;;1.23;0.40;;;;;;;;;;5049748;28;20225;-79
2024/01/24 14:16:41;;;;;;;0.90;0.40;;;;;;;;;;5059424;28;20192;-80
2024/01/24 14:19:08;;;;;;;2.97;0.60;;;;;;;;;;5050085;28;20240;-80
2024/01/24 14:21:45;;;;;;;0.80;0.40;;;;;;;;;;5060611;28;20280;-82
2024/01/24 14:24:16;;;;;;;2.63;0.70;;;;;;;;;;5061769;28;20200;-80
2024/01/24 14:26:42;;;;;;;3.87;0.60;;;;;;;;;;5053869;28;20194;-80
2024/01/24 14:29:09;;;;;;;0.40;0.40;;;;;;;;;;5065418;28;20247;-80
2024/01/24 14:31:36;;;;;;;0.83;0.50;;;;;;;;;;5051784;28;20204;-81
2024/01/24 14:34:04;;;;;;;1.33;0.60;;;;;;;;;;5060180;28;20224;-80
2024/01/24 14:36:32;;;;;;;0.93;0.50;;;;;;;;;;5061866;28;20197;-80
2024/01/24 14:38:59;;;;;;;0.87;0.40;;;;;;;;;;5069626;28;20238;-80
2024/01/24 14:41:27;;;;;;;0.77;0.40;;;;;;;;;;5062285;28;20193;-80
2024/01/24 14:43:53;;;;;;;0.53;0.53;;;;;;;;;;5069522;28;20217;-80
2024/01/24 14:46:21;;;;;;;0.40;0.40;;;;;;;;;;5069482;28;20216;-81
2024/01/24 14:48:48;;;;;;;0.50;0.37;;;;;;;;;;5065756;28;20186;-80
2024/01/24 14:51:19;;;;;;;0.63;0.43;;;;;;;;;;5061766;28;20620;-79
2024/01/24 14:53:48;;;;;;;0.73;0.50;;;;;;;;;;5069337;28;20197;-81
2024/01/24 14:56:22;;;;;;;0.40;0.40;;;;;;;;;;5055308;28;20265;-81
2024/01/24 14:58:49;;;;;;;0.80;0.50;;;;;;;;;;5061051;28;20374;-80
2024/01/24 15:01:19;;;;;;;0.40;0.40;;;;;;;;;;5060578;28;20189;-80
2024/01/24 15:03:50;;;;;;;0.63;0.40;;;;;;;;;;5055022;28;20561;-81